Time;durP1;ratioP1;P1;durP2;ratioP2;P2;SDS_P1;SDS_P2;PMS_P1;PMS_P2;Temp;Humidity;BMP_temperature;BMP_pressure;BME280_temperature;BME280_humidity;BME280_pressure;Samples;Min_cycle;Max_cycle;Signal;HPM_P1;HPM_P2
2023/06/17 00:01:25;;;;;;;25.08;20.63;;;;;;;;;;4957183;29;20815;-89
2023/06/17 00:03:52;;;;;;;23.38;20.98;;;;;;;;;;4956601;29;20258;-89
2023/06/17 00:06:19;;;;;;;28.08;20.63;;;;;;;;;;4956700;29;20230;-89
2023/06/17 00:08:46;;;;;;;24.35;19.92;;;;;;;;;;4956450;29;20195;-90
2023/06/17 00:11:13;;;;;;;22.15;19.85;;;;;;;;;;4956454;29;20254;-90
2023/06/17 00:13:40;;;;;;;22.08;19.88;;;;;;;;;;4956403;29;20226;-89
2023/06/17 00:16:12;;;;;;;21.67;18.92;;;;;;;;;;4956016;29;20211;-83
2023/06/17 00:18:41;;;;;;;21.40;18.90;;;;;;;;;;4956034;29;20258;-89
2023/06/17 00:21:09;;;;;;;21.58;19.45;;;;;;;;;;4956762;28;20660;-90
2023/06/17 00:23:37;;;;;;;21.35;19.15;;;;;;;;;;4956506;29;20198;-90
2023/06/17 00:26:04;;;;;;;23.15;19.38;;;;;;;;;;4956243;29;20297;-88
2023/06/17 00:28:31;;;;;;;22.27;19.98;;;;;;;;;;4956061;29;20195;-89
2023/06/17 00:30:58;;;;;;;23.25;19.92;;;;;;;;;;4956075;29;20719;-89
2023/06/17 00:33:27;;;;;;;21.77;19.50;;;;;;;;;;4956387;29;20566;-90
2023/06/17 00:35:54;;;;;;;23.17;20.35;;;;;;;;;;4956389;29;20229;-89
2023/06/17 00:38:21;;;;;;;24.30;21.75;;;;;;;;;;4956023;29;20322;-90
2023/06/17 00:40:48;;;;;;;23.52;21.10;;;;;;;;;;4956310;29;21347;-90
2023/06/17 00:43:15;;;;;;;28.33;21.25;;;;;;;;;;4956174;29;20630;-89
2023/06/17 00:45:42;;;;;;;24.20;20.30;;;;;;;;;;4955719;28;20623;-90
2023/06/17 00:48:10;;;;;;;23.63;21.13;;;;;;;;;;4956186;29;20878;-89
2023/06/17 00:50:39;;;;;;;26.50;22.52;;;;;;;;;;4956379;28;20210;-90
2023/06/17 00:53:06;;;;;;;25.45;22.67;;;;;;;;;;4955982;29;20279;-89
2023/06/17 00:55:34;;;;;;;24.60;22.10;;;;;;;;;;4955861;29;20282;-90
2023/06/17 00:58:01;;;;;;;26.23;23.73;;;;;;;;;;4955889;28;20294;-88
2023/06/17 01:00:29;;;;;;;25.88;23.20;;;;;;;;;;4955820;29;20290;-89
2023/06/17 01:02:56;;;;;;;26.00;23.25;;;;;;;;;;4955732;29;20238;-89
2023/06/17 01:05:24;;;;;;;24.73;22.15;;;;;;;;;;4955571;29;20199;-89
2023/06/17 01:08:00;;;;;;;26.60;22.38;;;;;;;;;;4937950;29;20563;-89
2023/06/17 01:10:32;;;;;;;25.98;23.13;;;;;;;;;;4936797;29;20200;-89
2023/06/17 01:13:00;;;;;;;25.55;22.73;;;;;;;;;;4936699;29;20207;-90
2023/06/17 01:15:27;;;;;;;24.95;21.83;;;;;;;;;;4946489;29;20222;-89
2023/06/17 01:17:55;;;;;;;24.83;22.42;;;;;;;;;;4955571;29;20266;-89
2023/06/17 01:20:26;;;;;;;27.45;22.88;;;;;;;;;;4955884;29;20227;-89
2023/06/17 01:22:54;;;;;;;24.70;22.27;;;;;;;;;;4955513;28;20251;-89
2023/06/17 01:25:29;;;;;;;28.67;23.70;;;;;;;;;;4955493;29;20663;-89
2023/06/17 01:27:59;;;;;;;28.05;25.08;;;;;;;;;;4955733;29;20672;-89
2023/06/17 01:30:29;;;;;;;26.83;24.13;;;;;;;;;;4955470;29;20247;-90
2023/06/17 01:32:56;;;;;;;27.38;24.50;;;;;;;;;;4955818;28;20202;-89
2023/06/17 01:35:24;;;;;;;27.95;25.15;;;;;;;;;;4959397;28;20207;-89
2023/06/17 01:37:53;;;;;;;28.92;26.02;;;;;;;;;;4958918;29;20675;-89
2023/06/17 01:40:22;;;;;;;28.20;25.17;;;;;;;;;;4959146;29;20209;-89
2023/06/17 01:42:52;;;;;;;28.27;25.30;;;;;;;;;;4959371;29;20191;-89
2023/06/17 01:45:19;;;;;;;27.95;25.15;;;;;;;;;;4959117;29;20258;-89
2023/06/17 01:47:47;;;;;;;26.42;23.60;;;;;;;;;;4959760;29;20588;-88
2023/06/17 01:50:18;;;;;;;25.55;23.08;;;;;;;;;;4962361;29;20228;-86
2023/06/17 01:52:45;;;;;;;27.77;24.27;;;;;;;;;;4962578;29;20201;-90
2023/06/17 01:55:12;;;;;;;26.15;23.35;;;;;;;;;;4959967;29;20195;-89
2023/06/17 01:57:40;;;;;;;25.52;23.08;;;;;;;;;;4958753;29;20652;-89
2023/06/17 02:00:12;;;;;;;26.25;23.70;;;;;;;;;;4958945;29;20195;-89
2023/06/17 02:02:40;;;;;;;27.95;24.83;;;;;;;;;;4958718;29;20207;-89
2023/06/17 02:05:07;;;;;;;27.20;24.33;;;;;;;;;;4958837;29;20195;-89
2023/06/17 02:07:34;;;;;;;27.40;24.65;;;;;;;;;;4958621;29;20410;-88
2023/06/17 02:10:03;;;;;;;27.35;24.60;;;;;;;;;;4959174;28;20230;-89
2023/06/17 02:12:30;;;;;;;27.65;24.75;;;;;;;;;;4958693;29;20282;-88
2023/06/17 02:14:57;;;;;;;26.48;23.67;;;;;;;;;;4959024;28;20293;-89
2023/06/17 02:17:27;;;;;;;28.40;25.42;;;;;;;;;;4958764;29;20320;-89
2023/06/17 02:19:55;;;;;;;27.08;24.15;;;;;;;;;;4958574;29;20238;-90
2023/06/17 02:22:22;;;;;;;28.50;25.50;;;;;;;;;;4958117;28;20756;-89
2023/06/17 02:24:49;;;;;;;27.63;24.73;;;;;;;;;;4958531;28;20263;-88
2023/06/17 02:27:17;;;;;;;27.30;24.40;;;;;;;;;;4958133;28;20191;-89
2023/06/17 02:29:44;;;;;;;27.30;24.40;;;;;;;;;;4958283;28;20199;-89
2023/06/17 02:32:12;;;;;;;27.40;24.52;;;;;;;;;;4958002;29;20226;-89
2023/06/17 02:34:42;;;;;;;29.70;25.58;;;;;;;;;;4958349;29;20199;-89
2023/06/17 02:37:09;;;;;;;28.67;25.58;;;;;;;;;;4957857;29;20202;-88
2023/06/17 02:39:36;;;;;;;28.35;25.45;;;;;;;;;;4958520;28;20227;-89
2023/06/17 02:42:05;;;;;;;28.75;25.05;;;;;;;;;;4957721;29;20607;-89
2023/06/17 02:44:32;;;;;;;27.45;23.75;;;;;;;;;;4958022;28;20206;-88
2023/06/17 02:46:59;;;;;;;28.58;25.35;;;;;;;;;;4957991;28;20246;-89
2023/06/17 02:49:26;;;;;;;27.88;24.98;;;;;;;;;;4957763;29;20195;-88
2023/06/17 02:51:55;;;;;;;27.52;24.70;;;;;;;;;;4957985;29;20286;-89
2023/06/17 02:54:22;;;;;;;28.83;25.80;;;;;;;;;;4957823;29;20278;-89
2023/06/17 02:56:49;;;;;;;29.38;26.42;;;;;;;;;;4957618;29;20205;-89
2023/06/17 02:59:16;;;;;;;30.50;25.65;;;;;;;;;;4957827;29;20306;-88
2023/06/17 03:01:44;;;;;;;26.83;24.07;;;;;;;;;;4957487;29;20401;-88
2023/06/17 03:04:12;;;;;;;27.65;24.55;;;;;;;;;;4957686;29;20250;-88
2023/06/17 03:06:40;;;;;;;28.37;25.37;;;;;;;;;;4957921;29;20215;-88
2023/06/17 03:09:09;;;;;;;30.03;25.47;;;;;;;;;;4957878;29;20199;-88
2023/06/17 03:11:37;;;;;;;31.50;26.55;;;;;;;;;;4957380;29;20293;-88
2023/06/17 03:14:05;;;;;;;27.33;24.30;;;;;;;;;;4957735;29;20299;-88
2023/06/17 03:16:33;;;;;;;31.20;27.90;;;;;;;;;;4957552;29;20227;-89
2023/06/17 03:19:00;;;;;;;31.83;28.02;;;;;;;;;;4957486;29;20223;-88
2023/06/17 03:21:29;;;;;;;29.67;26.67;;;;;;;;;;4957487;29;20226;-88
2023/06/17 03:23:58;;;;;;;31.43;28.03;;;;;;;;;;4957495;28;20748;-88
2023/06/17 03:26:27;;;;;;;29.80;26.67;;;;;;;;;;4957324;29;20199;-89
2023/06/17 03:28:54;;;;;;;28.20;25.40;;;;;;;;;;4958182;28;20199;-88
2023/06/17 03:31:22;;;;;;;27.60;24.77;;;;;;;;;;4957004;29;20234;-89
2023/06/17 03:33:51;;;;;;;30.97;26.73;;;;;;;;;;4956989;29;20672;-87
2023/06/17 03:36:19;;;;;;;29.10;26.17;;;;;;;;;;4956964;29;20578;-88
2023/06/17 03:38:47;;;;;;;29.85;26.83;;;;;;;;;;4957179;29;20219;-89
2023/06/17 03:41:14;;;;;;;29.17;26.17;;;;;;;;;;4957168;29;20289;-89
2023/06/17 03:43:42;;;;;;;29.87;26.20;;;;;;;;;;4957117;29;20225;-88
2023/06/17 03:46:09;;;;;;;31.53;28.20;;;;;;;;;;4956905;29;20724;-89
2023/06/17 03:48:36;;;;;;;30.47;27.23;;;;;;;;;;4956811;29;20634;-89
2023/06/17 03:51:04;;;;;;;30.57;27.27;;;;;;;;;;4957204;29;20736;-88
2023/06/17 03:53:31;;;;;;;30.37;27.10;;;;;;;;;;4956740;29;20199;-89
2023/06/17 03:55:58;;;;;;;30.83;26.67;;;;;;;;;;4955655;28;20287;-89
2023/06/17 03:58:26;;;;;;;30.70;27.40;;;;;;;;;;4956557;29;20298;-88
2023/06/17 04:00:54;;;;;;;29.00;26.00;;;;;;;;;;4956618;29;20238;-89
2023/06/17 04:03:24;;;;;;;31.23;27.97;;;;;;;;;;4957214;28;20192;-88
2023/06/17 04:05:52;;;;;;;31.57;28.07;;;;;;;;;;4956715;29;20192;-89
2023/06/17 04:08:19;;;;;;;29.30;26.20;;;;;;;;;;4956399;29;20199;-88
2023/06/17 04:10:47;;;;;;;30.70;26.90;;;;;;;;;;4956313;29;20234;-89
2023/06/17 04:13:15;;;;;;;32.00;28.50;;;;;;;;;;4956800;28;20754;-89
2023/06/17 04:15:42;;;;;;;30.77;27.60;;;;;;;;;;4956268;29;20222;-89
2023/06/17 04:18:11;;;;;;;36.80;30.10;;;;;;;;;;4956445;29;20242;-89
2023/06/17 04:20:38;;;;;;;31.47;28.23;;;;;;;;;;4956423;29;20265;-88
2023/06/17 04:23:06;;;;;;;30.03;26.93;;;;;;;;;;4955687;29;20203;-88
2023/06/17 04:25:36;;;;;;;31.13;27.90;;;;;;;;;;4956490;29;20219;-88
2023/06/17 04:28:04;;;;;;;33.97;29.63;;;;;;;;;;4956435;29;20200;-88
2023/06/17 04:30:32;;;;;;;31.48;28.23;;;;;;;;;;4956307;29;20234;-88
2023/06/17 04:33:00;;;;;;;30.67;26.43;;;;;;;;;;4956191;29;20705;-88
2023/06/17 04:35:29;;;;;;;30.07;26.87;;;;;;;;;;4956037;29;20274;-88
2023/06/17 04:37:56;;;;;;;33.07;27.33;;;;;;;;;;4956093;29;20216;-88
2023/06/17 04:40:24;;;;;;;30.07;26.87;;;;;;;;;;4956270;28;20238;-87
2023/06/17 04:42:51;;;;;;;30.73;27.53;;;;;;;;;;4955835;29;20222;-88
2023/06/17 04:45:19;;;;;;;32.30;28.87;;;;;;;;;;4956185;29;20286;-88
2023/06/17 04:47:46;;;;;;;34.13;30.33;;;;;;;;;;4955587;28;20204;-87
2023/06/17 04:50:15;;;;;;;33.70;29.98;;;;;;;;;;4955751;29;20223;-86
2023/06/17 04:52:44;;;;;;;34.70;29.92;;;;;;;;;;4954974;29;20203;-87
2023/06/17 04:55:15;;;;;;;31.63;28.47;;;;;;;;;;4955523;29;20206;-86
2023/06/17 04:57:43;;;;;;;35.05;30.05;;;;;;;;;;4955654;28;20637;-87
2023/06/17 05:00:11;;;;;;;32.67;28.95;;;;;;;;;;4955123;29;20606;-87
2023/06/17 05:02:38;;;;;;;32.72;29.30;;;;;;;;;;4967770;28;20198;-87
2023/06/17 05:05:06;;;;;;;33.33;29.58;;;;;;;;;;4974680;28;20564;-86
2023/06/17 05:07:33;;;;;;;38.45;29.73;;;;;;;;;;4973537;28;20293;-87
2023/06/17 05:10:02;;;;;;;33.47;28.25;;;;;;;;;;4974250;28;20274;-87
2023/06/17 05:12:29;;;;;;;32.45;27.80;;;;;;;;;;4974878;28;20226;-87
2023/06/17 05:14:56;;;;;;;40.25;29.35;;;;;;;;;;4968548;28;20333;-86
2023/06/17 05:17:24;;;;;;;33.92;29.45;;;;;;;;;;4955183;29;20289;-85
2023/06/17 05:19:51;;;;;;;31.70;28.42;;;;;;;;;;4955118;28;20391;-87
2023/06/17 05:22:18;;;;;;;33.35;29.65;;;;;;;;;;4954935;29;20218;-87
2023/06/17 05:24:45;;;;;;;36.58;30.00;;;;;;;;;;4955292;29;20290;-87
2023/06/17 05:27:14;;;;;;;33.35;29.55;;;;;;;;;;4954947;29;20282;-87
2023/06/17 05:29:41;;;;;;;35.35;29.48;;;;;;;;;;4955414;29;20274;-88
2023/06/17 05:32:08;;;;;;;36.78;29.75;;;;;;;;;;4955188;29;20246;-88
2023/06/17 05:34:35;;;;;;;33.47;29.75;;;;;;;;;;4954835;29;20234;-88
2023/06/17 05:37:03;;;;;;;34.25;28.90;;;;;;;;;;4955016;29;20297;-87
2023/06/17 05:39:30;;;;;;;35.20;30.00;;;;;;;;;;4955477;29;20335;-87
2023/06/17 05:41:57;;;;;;;36.35;29.00;;;;;;;;;;4954973;28;20234;-88
2023/06/17 05:44:25;;;;;;;36.65;29.15;;;;;;;;;;4954936;29;20254;-87
2023/06/17 05:46:54;;;;;;;34.65;28.90;;;;;;;;;;4956178;29;20231;-88
2023/06/17 05:49:22;;;;;;;35.30;29.38;;;;;;;;;;4955670;28;20704;-88
2023/06/17 05:51:49;;;;;;;34.08;29.08;;;;;;;;;;4954846;29;20238;-88
2023/06/17 05:54:16;;;;;;;33.60;29.83;;;;;;;;;;4954756;28;20731;-88
2023/06/17 05:56:43;;;;;;;29.23;26.23;;;;;;;;;;4954633;29;20773;-88
2023/06/17 05:59:10;;;;;;;30.75;26.23;;;;;;;;;;4954727;29;20752;-88
2023/06/17 06:01:39;;;;;;;30.23;27.05;;;;;;;;;;4954784;29;20206;-88
2023/06/17 06:04:06;;;;;;;28.63;25.10;;;;;;;;;;4955070;29;20291;-88
2023/06/17 06:06:33;;;;;;;28.15;25.25;;;;;;;;;;4954695;29;20254;-88
2023/06/17 06:09:00;;;;;;;30.92;25.40;;;;;;;;;;4954873;29;20235;-88
2023/06/17 06:11:27;;;;;;;29.00;24.80;;;;;;;;;;4955105;29;20219;-88
2023/06/17 06:13:54;;;;;;;26.80;23.70;;;;;;;;;;4955068;29;20191;-89
2023/06/17 06:16:22;;;;;;;27.25;24.45;;;;;;;;;;4954931;29;20241;-88
2023/06/17 06:18:50;;;;;;;24.10;21.80;;;;;;;;;;4968713;28;20286;-88
2023/06/17 06:21:17;;;;;;;22.65;20.25;;;;;;;;;;4977532;28;20719;-87
2023/06/17 06:23:45;;;;;;;22.05;19.83;;;;;;;;;;4977894;28;20265;-89
2023/06/17 06:26:12;;;;;;;23.30;20.80;;;;;;;;;;4977746;28;20286;-89
2023/06/17 06:28:39;;;;;;;22.48;20.15;;;;;;;;;;4977330;28;20226;-89
2023/06/17 06:31:06;;;;;;;25.42;21.17;;;;;;;;;;4977158;28;20233;-89
2023/06/17 06:33:35;;;;;;;22.50;20.30;;;;;;;;;;4976885;28;20241;-89
2023/06/17 06:36:03;;;;;;;22.45;20.10;;;;;;;;;;4977589;28;20233;-88
2023/06/17 06:38:31;;;;;;;22.73;20.50;;;;;;;;;;4977829;28;20282;-89
2023/06/17 06:40:58;;;;;;;22.63;20.40;;;;;;;;;;4977614;28;20258;-89
2023/06/17 06:43:25;;;;;;;23.17;20.85;;;;;;;;;;4976969;28;20290;-88
2023/06/17 06:45:52;;;;;;;20.92;18.92;;;;;;;;;;4977200;28;20290;-89
2023/06/17 06:48:19;;;;;;;21.55;19.42;;;;;;;;;;4977562;28;20285;-90
2023/06/17 06:50:47;;;;;;;21.98;19.77;;;;;;;;;;4976930;28;20191;-88
2023/06/17 06:53:15;;;;;;;21.73;19.35;;;;;;;;;;4977609;28;20191;-89
2023/06/17 06:55:42;;;;;;;22.75;20.35;;;;;;;;;;4976883;28;20194;-88
2023/06/17 06:58:10;;;;;;;22.55;20.25;;;;;;;;;;4976940;28;20218;-89
2023/06/17 07:00:39;;;;;;;23.27;20.88;;;;;;;;;;4977001;28;20336;-90
2023/06/17 07:03:06;;;;;;;23.92;21.15;;;;;;;;;;4976723;28;20261;-89
2023/06/17 07:05:33;;;;;;;23.58;21.23;;;;;;;;;;4976948;28;20226;-89
2023/06/17 07:08:01;;;;;;;25.13;22.52;;;;;;;;;;4976381;28;20285;-88
2023/06/17 07:10:30;;;;;;;26.67;23.52;;;;;;;;;;4976247;28;20862;-88
2023/06/17 07:12:57;;;;;;;26.95;24.35;;;;;;;;;;4976293;28;20191;-87
2023/06/17 07:15:24;;;;;;;26.75;24.15;;;;;;;;;;4966705;28;20290;-88
2023/06/17 07:17:51;;;;;;;28.08;25.38;;;;;;;;;;4956473;29;20341;-87
2023/06/17 07:20:18;;;;;;;27.50;24.70;;;;;;;;;;4956517;29;20317;-87
2023/06/17 07:22:46;;;;;;;27.75;24.95;;;;;;;;;;4956425;29;20290;-87
2023/06/17 07:25:13;;;;;;;26.77;24.30;;;;;;;;;;4956611;29;20282;-87
2023/06/17 07:27:41;;;;;;;26.67;23.98;;;;;;;;;;4956421;29;20286;-88
2023/06/17 07:30:09;;;;;;;29.10;23.23;;;;;;;;;;4956897;28;20226;-87
2023/06/17 07:32:36;;;;;;;24.63;22.17;;;;;;;;;;4955597;29;20297;-87
2023/06/17 07:35:03;;;;;;;25.48;22.85;;;;;;;;;;4956678;29;20223;-88
2023/06/17 07:37:31;;;;;;;30.65;27.35;;;;;;;;;;4956601;29;20219;-92
2023/06/17 07:39:58;;;;;;;33.70;29.40;;;;;;;;;;4957272;29;20262;-86
2023/06/17 07:42:25;;;;;;;26.42;23.80;;;;;;;;;;4956805;29;20218;-89
2023/06/17 07:44:54;;;;;;;25.35;22.67;;;;;;;;;;4954973;29;20298;-92
2023/06/17 07:47:21;;;;;;;23.00;20.65;;;;;;;;;;4954673;28;20294;-90
2023/06/17 07:49:49;;;;;;;27.35;22.27;;;;;;;;;;4950696;29;20238;-91
2023/06/17 07:52:16;;;;;;;21.08;19.00;;;;;;;;;;4947411;29;20207;-90
2023/06/17 07:54:44;;;;;;;20.73;18.77;;;;;;;;;;4947730;29;20633;-91
2023/06/17 07:57:12;;;;;;;23.27;21.08;;;;;;;;;;4955067;28;20600;-89
2023/06/17 07:59:40;;;;;;;21.48;19.40;;;;;;;;;;4955407;29;20284;-90
2023/06/17 08:02:09;;;;;;;19.27;17.33;;;;;;;;;;4945246;29;20295;-93
2023/06/17 08:04:36;;;;;;;18.90;17.02;;;;;;;;;;4945678;29;20290;-94
2023/06/17 08:07:03;;;;;;;21.42;19.25;;;;;;;;;;4956137;29;20191;-92
2023/06/17 08:09:31;;;;;;;19.48;17.60;;;;;;;;;;4956751;28;20226;-91
2023/06/17 08:11:58;;;;;;;19.30;17.50;;;;;;;;;;4956820;29;20286;-91
2023/06/17 08:14:25;;;;;;;17.38;15.40;;;;;;;;;;4956648;29;20671;-96
2023/06/17 08:16:52;;;;;;;20.35;18.40;;;;;;;;;;4953827;29;20252;-91
2023/06/17 08:19:21;;;;;;;17.70;15.93;;;;;;;;;;4946699;29;20652;-92
2023/06/17 08:21:49;;;;;;;18.00;16.25;;;;;;;;;;4953253;29;20310;-94
2023/06/17 08:24:20;;;;;;;18.42;16.77;;;;;;;;;;4956414;28;20906;-94
2023/06/17 08:26:47;;;;;;;17.83;16.02;;;;;;;;;;4957665;29;20246;-95
2023/06/17 08:29:15;;;;;;;14.88;13.40;;;;;;;;;;4959361;29;20278;-96
2023/06/17 08:31:43;;;;;;;16.60;14.55;;;;;;;;;;4959941;29;20302;-95
2023/06/17 08:34:10;;;;;;;15.15;13.73;;;;;;;;;;4957632;29;20579;-93
2023/06/17 08:36:39;;;;;;;16.77;15.02;;;;;;;;;;4956880;29;20658;-94
2023/06/17 08:39:06;;;;;;;16.15;14.65;;;;;;;;;;4956222;29;20191;-93
2023/06/17 08:41:35;;;;;;;16.67;15.15;;;;;;;;;;4956096;28;20250;-91
2023/06/17 08:44:03;;;;;;;16.40;14.75;;;;;;;;;;4955291;29;20294;-91
2023/06/17 08:46:30;;;;;;;15.73;14.18;;;;;;;;;;4956331;29;20194;-90
2023/06/17 08:48:59;;;;;;;13.77;12.48;;;;;;;;;;4955892;29;20506;-90
2023/06/17 08:51:26;;;;;;;13.38;12.13;;;;;;;;;;4956318;29;20632;-88
2023/06/17 08:53:56;;;;;;;12.80;11.55;;;;;;;;;;4956050;29;20199;-89
2023/06/17 08:56:24;;;;;;;12.98;11.55;;;;;;;;;;4955165;29;20195;-89
2023/06/17 08:58:53;;;;;;;12.88;11.68;;;;;;;;;;4955435;29;20227;-91
2023/06/17 09:01:20;;;;;;;14.95;13.60;;;;;;;;;;4955865;29;20237;-91
2023/06/17 09:03:48;;;;;;;13.13;11.82;;;;;;;;;;4956684;29;20623;-91
2023/06/17 09:06:17;;;;;;;14.52;13.07;;;;;;;;;;4955893;29;20278;-94
2023/06/17 09:08:44;;;;;;;13.93;12.48;;;;;;;;;;4956406;29;20203;-94
2023/06/17 09:11:13;;;;;;;13.00;11.77;;;;;;;;;;4954982;29;20657;-91
2023/06/17 09:13:40;;;;;;;13.48;12.27;;;;;;;;;;4952691;28;20199;-91
2023/06/17 09:16:08;;;;;;;14.10;12.85;;;;;;;;;;4955052;28;20233;-93
2023/06/17 09:18:36;;;;;;;13.88;12.57;;;;;;;;;;4959114;28;20740;-94
2023/06/17 09:21:04;;;;;;;13.82;12.45;;;;;;;;;;4960638;28;20234;-93
2023/06/17 09:23:32;;;;;;;13.63;12.23;;;;;;;;;;4976496;28;20294;-93
2023/06/17 09:28:49;;;;;;;14.23;12.88;;;;;;;;;;4957838;28;20203;-95
2023/06/17 09:33:58;;;;;;;11.35;10.25;;;;;;;;;;4956634;28;20226;-95
2023/06/17 09:39:29;;;;;;;11.10;10.00;;;;;;;;;;4969372;28;20191;-96
2023/06/17 09:41:58;;;;;;;10.77;9.77;;;;;;;;;;4953158;29;20235;-94
2023/06/17 09:44:26;;;;;;;11.00;9.32;;;;;;;;;;4961233;28;20203;-94
2023/06/17 09:46:55;;;;;;;10.32;9.43;;;;;;;;;;4962593;28;20203;-95
2023/06/17 09:52:05;;;;;;;10.93;8.00;;;;;;;;;;4956489;28;20203;-91
2023/06/17 09:54:33;;;;;;;10.00;9.10;;;;;;;;;;4959351;28;20211;-93
2023/06/17 09:57:02;;;;;;;8.77;7.97;;;;;;;;;;4963023;28;20207;-92
2023/06/17 09:59:31;;;;;;;8.15;7.35;;;;;;;;;;4958750;29;20223;-90
2023/06/17 10:01:58;;;;;;;9.93;8.93;;;;;;;;;;4953936;29;20782;-94
2023/06/17 10:04:25;;;;;;;9.60;8.73;;;;;;;;;;4962530;28;20187;-95
2023/06/17 10:06:53;;;;;;;8.98;7.85;;;;;;;;;;4961480;29;20255;-95
2023/06/17 10:09:20;;;;;;;8.70;7.75;;;;;;;;;;4962134;28;20202;-96
2023/06/17 10:11:49;;;;;;;6.90;6.22;;;;;;;;;;4956066;29;20249;-96
2023/06/17 10:14:20;;;;;;;7.35;6.57;;;;;;;;;;4953909;29;20234;-96
2023/06/17 10:17:05;;;;;;;7.40;6.70;;;;;;;;;;4965323;29;20238;-96
2023/06/17 10:19:33;;;;;;;6.25;5.75;;;;;;;;;;4963581;29;20233;-96
2023/06/17 10:22:01;;;;;;;6.60;5.90;;;;;;;;;;4958285;29;20249;-96
2023/06/17 10:24:29;;;;;;;8.63;7.60;;;;;;;;;;4960281;28;20246;-94
2023/06/17 10:26:56;;;;;;;6.88;6.25;;;;;;;;;;4961820;28;20223;-95
2023/06/17 10:29:23;;;;;;;7.18;6.47;;;;;;;;;;4961503;29;20200;-90
2023/06/17 10:31:50;;;;;;;6.10;5.50;;;;;;;;;;4962772;29;20246;-96
2023/06/17 10:34:23;;;;;;;6.15;5.43;;;;;;;;;;4963024;29;20294;-95
2023/06/17 10:36:51;;;;;;;6.28;5.78;;;;;;;;;;4963975;28;20254;-89
2023/06/17 10:39:18;;;;;;;6.35;5.75;;;;;;;;;;4956517;29;20240;-91
2023/06/17 10:42:00;;;;;;;6.85;6.00;;;;;;;;;;4956023;28;20664;-93
2023/06/17 10:44:43;;;;;;;6.43;5.90;;;;;;;;;;4963154;28;20200;-93
2023/06/17 10:47:21;;;;;;;6.57;5.97;;;;;;;;;;4956947;28;20225;-95
2023/06/17 10:49:49;;;;;;;6.82;6.22;;;;;;;;;;4960543;29;20203;-92
2023/06/17 10:52:17;;;;;;;6.57;5.65;;;;;;;;;;4959932;28;20214;-95
2023/06/17 10:54:46;;;;;;;7.13;6.45;;;;;;;;;;4960329;29;20233;-93
2023/06/17 10:57:14;;;;;;;8.43;5.93;;;;;;;;;;4959655;29;20207;-88
2023/06/17 10:59:41;;;;;;;6.95;6.35;;;;;;;;;;4958515;29;20199;-92
2023/06/17 11:02:09;;;;;;;6.78;6.18;;;;;;;;;;4956086;29;20325;-92
2023/06/17 11:04:37;;;;;;;6.80;6.03;;;;;;;;;;4959743;28;20226;-94
2023/06/17 11:07:06;;;;;;;6.00;5.40;;;;;;;;;;4957955;28;20226;-91
2023/06/17 11:09:34;;;;;;;7.88;5.85;;;;;;;;;;4962133;28;20235;-95
2023/06/17 11:12:08;;;;;;;6.78;5.82;;;;;;;;;;4962883;28;20205;-91
2023/06/17 11:14:37;;;;;;;6.00;5.50;;;;;;;;;;4961335;28;20206;-91
2023/06/17 11:17:05;;;;;;;7.05;6.38;;;;;;;;;;4959313;28;20230;-93
2023/06/17 11:19:34;;;;;;;6.20;5.65;;;;;;;;;;4942477;29;20199;-94
2023/06/17 11:22:03;;;;;;;6.60;6.00;;;;;;;;;;4942820;29;20251;-94
2023/06/17 11:24:36;;;;;;;6.45;5.95;;;;;;;;;;4946456;29;20191;-92
2023/06/17 11:27:05;;;;;;;5.80;5.30;;;;;;;;;;4940920;28;20207;-83
2023/06/17 11:29:33;;;;;;;5.65;5.00;;;;;;;;;;4944396;29;20203;-89
2023/06/17 11:32:01;;;;;;;5.65;5.03;;;;;;;;;;4952543;29;20198;-91
2023/06/17 11:34:31;;;;;;;6.30;5.78;;;;;;;;;;4970432;28;20317;-91
2023/06/17 11:37:00;;;;;;;5.65;5.07;;;;;;;;;;4962956;28;20198;-87
2023/06/17 11:39:29;;;;;;;6.13;5.47;;;;;;;;;;4977888;28;20205;-90
2023/06/17 11:42:01;;;;;;;5.47;4.97;;;;;;;;;;4970182;28;20261;-87
2023/06/17 11:44:29;;;;;;;5.50;5.10;;;;;;;;;;4958402;28;20202;-88
2023/06/17 11:46:57;;;;;;;5.43;4.93;;;;;;;;;;4957495;28;20199;-87
2023/06/17 11:49:25;;;;;;;5.78;5.25;;;;;;;;;;4957015;28;20198;-87
2023/06/17 11:51:53;;;;;;;6.10;5.60;;;;;;;;;;4959090;28;20198;-88
2023/06/17 11:54:21;;;;;;;6.38;5.85;;;;;;;;;;4957360;29;20226;-86
2023/06/17 11:56:50;;;;;;;7.07;5.50;;;;;;;;;;4955831;28;20200;-85
2023/06/17 11:59:20;;;;;;;8.48;5.72;;;;;;;;;;4957105;29;20213;-87
2023/06/17 12:01:48;;;;;;;5.97;5.47;;;;;;;;;;4956477;28;20580;-86
2023/06/17 12:04:15;;;;;;;6.38;5.78;;;;;;;;;;4955617;28;20211;-88
2023/06/17 12:06:42;;;;;;;6.65;6.05;;;;;;;;;;4955005;28;20195;-83
2023/06/17 12:09:10;;;;;;;7.10;6.50;;;;;;;;;;4950184;29;20233;-89
2023/06/17 12:11:39;;;;;;;7.53;6.80;;;;;;;;;;4944524;28;20210;-87
2023/06/17 12:14:08;;;;;;;8.52;6.75;;;;;;;;;;4955750;28;20265;-86
2023/06/17 12:16:38;;;;;;;7.85;7.25;;;;;;;;;;4955705;28;20325;-87
2023/06/17 12:19:07;;;;;;;7.85;7.18;;;;;;;;;;4956711;28;20203;-86
2023/06/17 12:21:36;;;;;;;10.05;6.93;;;;;;;;;;4956324;28;20599;-89
2023/06/17 12:24:03;;;;;;;7.50;6.80;;;;;;;;;;4958232;28;20266;-86
2023/06/17 12:26:31;;;;;;;38.55;27.15;;;;;;;;;;4958232;28;20750;-89
2023/06/17 12:28:59;;;;;;;9.68;8.18;;;;;;;;;;4956407;29;20258;-77
2023/06/17 12:31:27;;;;;;;6.90;6.30;;;;;;;;;;4956714;28;20303;-82
2023/06/17 12:33:56;;;;;;;6.82;5.90;;;;;;;;;;4957065;29;20230;-89
2023/06/17 12:36:23;;;;;;;6.75;5.80;;;;;;;;;;4957116;28;20238;-88
2023/06/17 12:38:51;;;;;;;8.82;6.35;;;;;;;;;;4953589;28;20945;-82
2023/06/17 12:41:18;;;;;;;6.57;5.93;;;;;;;;;;4953052;28;20463;-82
2023/06/17 12:43:45;;;;;;;6.20;5.60;;;;;;;;;;4941969;28;20199;-83
2023/06/17 12:46:14;;;;;;;5.82;5.32;;;;;;;;;;4954320;28;20249;-82
2023/06/17 12:48:42;;;;;;;6.65;5.95;;;;;;;;;;4939166;28;20215;-83
2023/06/17 12:51:11;;;;;;;5.63;5.10;;;;;;;;;;4934329;29;20204;-83
2023/06/17 12:53:38;;;;;;;6.22;5.70;;;;;;;;;;4934743;29;20653;-82
2023/06/17 12:56:05;;;;;;;7.05;6.45;;;;;;;;;;4934373;29;20231;-82
2023/06/17 12:58:32;;;;;;;6.57;5.90;;;;;;;;;;4934904;29;20287;-81
2023/06/17 13:01:01;;;;;;;7.68;6.05;;;;;;;;;;4934567;28;20693;-82
2023/06/17 13:03:28;;;;;;;6.53;5.90;;;;;;;;;;4934030;29;20235;-82
2023/06/17 13:05:55;;;;;;;6.38;5.78;;;;;;;;;;4933821;29;20206;-82
2023/06/17 13:08:23;;;;;;;6.40;5.55;;;;;;;;;;4937454;29;20339;-81
2023/06/17 13:10:51;;;;;;;5.38;4.70;;;;;;;;;;4935796;28;20239;-83
2023/06/17 13:13:18;;;;;;;5.63;5.10;;;;;;;;;;4934406;29;20283;-83
2023/06/17 13:15:47;;;;;;;5.35;4.85;;;;;;;;;;4940457;28;20213;-82
2023/06/17 13:18:14;;;;;;;5.60;5.10;;;;;;;;;;4946676;28;20325;-84
2023/06/17 13:20:41;;;;;;;4.95;4.30;;;;;;;;;;4952443;29;20301;-85
2023/06/17 13:23:08;;;;;;;5.32;4.82;;;;;;;;;;4953225;29;20238;-82
2023/06/17 13:25:37;;;;;;;5.50;5.00;;;;;;;;;;4971444;28;20206;-83
2023/06/17 13:28:04;;;;;;;5.40;4.90;;;;;;;;;;4971919;28;20678;-84
2023/06/17 13:30:33;;;;;;;5.50;5.00;;;;;;;;;;4958870;28;20230;-83
2023/06/17 13:33:00;;;;;;;5.35;4.85;;;;;;;;;;4950297;29;20203;-84
2023/06/17 13:35:27;;;;;;;5.57;5.07;;;;;;;;;;4958803;28;20368;-84
2023/06/17 13:37:57;;;;;;;7.28;5.25;;;;;;;;;;4967473;28;20243;-84
2023/06/17 13:40:24;;;;;;;6.05;5.47;;;;;;;;;;4950559;29;20834;-85
2023/06/17 13:42:53;;;;;;;6.53;5.60;;;;;;;;;;4957098;28;20278;-84
2023/06/17 13:45:20;;;;;;;7.65;5.70;;;;;;;;;;4971941;28;20245;-85
2023/06/17 13:47:47;;;;;;;7.28;6.07;;;;;;;;;;4955224;28;20253;-84
2023/06/17 13:50:15;;;;;;;6.30;5.70;;;;;;;;;;4962792;28;20226;-83
2023/06/17 13:52:42;;;;;;;6.30;5.68;;;;;;;;;;4954160;28;20252;-85
2023/06/17 13:55:09;;;;;;;5.72;5.20;;;;;;;;;;4948167;28;20230;-85
2023/06/17 13:57:36;;;;;;;6.32;5.75;;;;;;;;;;4952799;28;20278;-85
2023/06/17 14:00:05;;;;;;;5.95;5.32;;;;;;;;;;4959124;28;20231;-84
2023/06/17 14:02:33;;;;;;;5.90;5.40;;;;;;;;;;4959026;28;20269;-84
2023/06/17 14:05:00;;;;;;;6.22;5.60;;;;;;;;;;4959019;28;20234;-85
2023/06/17 14:07:27;;;;;;;5.97;5.47;;;;;;;;;;4956096;28;20203;-83
2023/06/17 14:09:55;;;;;;;6.50;5.85;;;;;;;;;;4967455;28;20230;-84
2023/06/17 14:12:22;;;;;;;6.15;5.15;;;;;;;;;;4948849;28;20231;-86
2023/06/17 14:14:49;;;;;;;5.50;5.00;;;;;;;;;;4946489;28;20205;-83
2023/06/17 14:17:18;;;;;;;5.63;4.93;;;;;;;;;;4964377;28;20267;-86
2023/06/17 14:19:45;;;;;;;4.93;4.40;;;;;;;;;;4952890;28;20613;-83
2023/06/17 14:22:13;;;;;;;4.90;4.50;;;;;;;;;;4955797;28;20266;-83
2023/06/17 14:24:40;;;;;;;8.60;4.90;;;;;;;;;;4965631;28;20293;-83
2023/06/17 14:27:21;;;;;;;6.65;4.82;;;;;;;;;;4947042;28;20306;-83
2023/06/17 14:29:48;;;;;;;5.22;4.72;;;;;;;;;;4941460;28;20199;-84
2023/06/17 14:32:15;;;;;;;4.90;4.50;;;;;;;;;;4950191;28;20343;-82
2023/06/17 14:34:44;;;;;;;5.15;4.70;;;;;;;;;;4943866;29;20258;-84
2023/06/17 14:37:11;;;;;;;4.78;4.38;;;;;;;;;;4949508;28;20246;-83
2023/06/17 14:39:39;;;;;;;6.30;4.78;;;;;;;;;;4951274;28;20211;-83
2023/06/17 14:42:06;;;;;;;5.45;4.95;;;;;;;;;;4952306;28;20826;-82